createdAt,value
2023-05-13T00:01:50.325Z,102143.91
2023-05-13T00:06:46.706Z,102152.09
2023-05-13T00:11:43.157Z,102146.09
2023-05-13T00:16:39.756Z,102154.19
2023-05-13T00:21:36.137Z,102150.16
2023-05-13T00:26:33.047Z,102146.13
2023-05-13T00:31:29.540Z,102147.63
2023-05-13T00:36:27.426Z,102147.03
2023-05-13T00:41:24.327Z,102150.06
2023-05-13T00:46:20.911Z,102143.28
2023-05-13T00:51:17.345Z,102146.88
2023-05-13T00:56:15.081Z,102149.81
2023-05-13T01:01:49.390Z,102154.66
2023-05-13T01:07:05.995Z,102152.16
2023-05-13T01:12:08.263Z,102148.97
2023-05-13T01:17:54.133Z,102149.25
2023-05-13T01:22:50.674Z,102144.31
2023-05-13T01:27:47.192Z,102146.38
2023-05-13T01:32:43.953Z,102152.78
2023-05-13T01:37:40.697Z,102155.53
2023-05-13T01:42:37.172Z,102152.56
2023-05-13T01:47:33.688Z,102160.50
2023-05-13T01:52:30.179Z,102158.75
2023-05-13T01:57:26.655Z,102158.06
2023-05-13T02:02:23.190Z,102160.06
2023-05-13T02:07:19.715Z,102153.41
2023-05-13T02:12:16.343Z,102156.16
2023-05-13T02:17:12.835Z,102153.84
2023-05-13T02:22:10.033Z,102160.19
2023-05-13T02:27:07.470Z,102148.91
2023-05-13T02:32:04.124Z,102161.38
2023-05-13T02:37:00.558Z,102167.84
2023-05-13T02:41:57.961Z,102163.78
2023-05-13T02:46:54.411Z,102158.69
2023-05-13T02:51:50.917Z,102151.94
2023-05-13T02:56:47.459Z,102163.53
2023-05-13T03:01:43.964Z,102162.78
2023-05-13T03:06:40.492Z,102167.25
2023-05-13T03:11:37.001Z,102166.47
2023-05-13T03:16:34.623Z,102170.00
2023-05-13T03:21:31.070Z,102171.09
2023-05-13T03:26:27.535Z,102174.06
2023-05-13T03:31:24.119Z,102166.25
2023-05-13T03:36:20.563Z,102169.00
2023-05-13T03:41:17.595Z,102162.09
2023-05-13T03:46:14.175Z,102159.53
2023-05-13T03:51:10.704Z,102170.19
2023-05-13T03:56:07.138Z,102174.56
2023-05-13T04:01:03.589Z,102176.38
2023-05-13T04:06:00.506Z,102177.84
2023-05-13T04:10:57.435Z,102176.03
2023-05-13T04:15:55.248Z,102171.59
2023-05-13T04:20:51.718Z,102181.28
2023-05-13T04:25:52.211Z,102172.38
2023-05-13T04:30:48.653Z,102178.31
2023-05-13T04:35:45.245Z,102182.91
2023-05-13T04:40:41.691Z,102183.91
2023-05-13T04:45:38.932Z,102190.16
2023-05-13T04:50:35.441Z,102190.00
2023-05-13T04:55:35.246Z,102191.69
2023-05-13T05:00:32.627Z,102192.06
2023-05-13T05:05:29.110Z,102199.19
2023-05-13T05:10:25.689Z,102198.50
2023-05-13T05:15:22.175Z,102204.78
2023-05-13T05:20:18.738Z,102205.78
2023-05-13T05:25:15.257Z,102218.72
2023-05-13T05:30:14.859Z,102216.53
2023-05-13T05:35:11.566Z,102215.28
2023-05-13T05:40:08.607Z,102208.75
2023-05-13T05:45:05.469Z,102207.53
2023-05-13T05:50:01.968Z,102207.63
2023-05-13T05:55:00.494Z,102205.72
2023-05-13T05:59:56.961Z,102201.03
2023-05-13T06:04:53.404Z,102217.09
2023-05-13T06:09:49.920Z,102209.88
2023-05-13T06:14:46.379Z,102197.63
2023-05-13T06:19:42.943Z,102204.31
2023-05-13T06:24:42.526Z,102210.78
2023-05-13T06:29:39.377Z,102203.13
2023-05-13T06:34:35.885Z,102204.09
2023-05-13T06:39:32.372Z,102201.81
2023-05-13T06:44:28.862Z,102200.63
2023-05-13T06:49:25.407Z,102210.66
2023-05-13T06:54:21.882Z,102208.28
2023-05-13T06:59:18.524Z,102210.69
2023-05-13T07:04:17.727Z,102210.78
2023-05-13T07:09:14.677Z,102211.22
2023-05-13T07:14:11.335Z,102203.16
2023-05-13T07:19:07.950Z,102205.22
2023-05-13T07:24:07.572Z,102209.75
2023-05-13T07:29:04.017Z,102216.94
2023-05-13T07:34:02.589Z,102205.84
2023-05-13T07:38:59.500Z,102218.19
2023-05-13T07:43:56.300Z,102204.25
2023-05-13T07:48:52.796Z,102203.16
2023-05-13T07:53:49.271Z,102199.25
2023-05-13T07:58:45.996Z,102198.28
2023-05-13T08:03:42.570Z,102194.38
2023-05-13T08:08:39.164Z,102200.66
2023-05-13T08:13:35.658Z,102199.94
2023-05-13T08:18:32.179Z,102200.94
2023-05-13T08:23:43.560Z,102193.63
2023-05-13T08:28:42.769Z,102195.09
2023-05-13T08:33:41.600Z,102195.25
2023-05-13T08:38:38.344Z,102190.06
2023-05-13T08:43:35.198Z,102185.16
2023-05-13T08:48:32.162Z,102189.41
2023-05-13T08:53:28.708Z,102187.94
2023-05-13T08:58:25.159Z,102198.59
2023-05-13T09:03:21.768Z,102190.97
2023-05-13T09:08:18.241Z,102190.34
2023-05-13T09:13:17.855Z,102188.28
2023-05-13T09:18:19.124Z,102192.56
2023-05-13T09:23:18.671Z,102193.41
2023-05-13T09:28:15.564Z,102190.59
2023-05-13T09:33:20.805Z,102196.34
2023-05-13T09:38:21.470Z,102182.69
2023-05-13T09:43:25.045Z,102181.19
2023-05-13T09:48:25.864Z,102185.44
2023-05-13T09:53:22.390Z,102188.59
2023-05-13T09:58:20.366Z,102187.09
2023-05-13T10:03:17.001Z,102185.41
2023-05-13T10:08:14.678Z,102182.16
2023-05-13T10:13:16.808Z,102171.97
2023-05-13T10:18:14.035Z,102164.16
2023-05-13T10:23:11.600Z,102167.72
2023-05-13T10:28:08.018Z,102171.34
2023-05-13T10:33:06.652Z,102172.09
2023-05-13T10:38:39.023Z,102164.78
2023-05-13T10:43:35.625Z,102163.56
2023-05-13T10:48:49.340Z,102150.13
2023-05-13T10:53:49.548Z,102149.63
2023-05-13T10:58:58.317Z,102141.25
2023-05-13T11:03:59.772Z,102141.16
2023-05-13T11:08:56.547Z,102144.03
2023-05-13T11:14:03.511Z,102129.66
2023-05-13T11:19:02.316Z,102120.31
2023-05-13T11:24:04.036Z,102115.22
2023-05-13T11:29:05.496Z,102122.66
2023-05-13T11:34:12.867Z,102129.47
2023-05-13T11:39:13.690Z,102123.91
2023-05-13T11:44:12.163Z,102119.19
2023-05-13T11:49:08.607Z,102121.66
2023-05-13T11:54:05.136Z,102124.47
2023-05-13T11:59:14.496Z,102119.72
2023-05-13T12:04:10.967Z,102128.69
2023-05-13T12:09:07.608Z,102118.69
2023-05-13T12:14:04.224Z,102127.09
2023-05-13T12:19:05.374Z,102118.69
2023-05-13T12:24:02.211Z,102128.34
2023-05-13T12:28:59.721Z,102117.56
2023-05-13T12:33:56.147Z,102125.56
2023-05-13T12:39:04.934Z,102116.75
2023-05-13T12:44:05.328Z,102120.06
2023-05-13T12:49:03.412Z,102122.19
2023-05-13T12:54:00.703Z,102126.19
2023-05-13T12:58:57.675Z,102109.25
2023-05-13T13:03:54.262Z,102110.47
2023-05-13T13:08:50.715Z,102109.69
2023-05-13T13:13:48.371Z,102112.66
2023-05-13T13:18:44.844Z,102100.84
2023-05-13T13:23:41.422Z,102106.81
2023-05-13T13:28:37.899Z,102095.41
2023-05-13T13:33:34.420Z,102100.81
2023-05-13T13:38:30.887Z,102103.66
2023-05-13T13:43:27.781Z,102093.66
2023-05-13T13:48:25.127Z,102084.84
2023-05-13T13:53:21.956Z,102090.84
2023-05-13T13:58:18.469Z,102073.16
2023-05-13T14:03:15.004Z,102082.31
2023-05-13T14:08:11.844Z,102061.94
2023-05-13T14:13:08.278Z,102070.91
2023-05-13T14:18:07.733Z,102064.34
2023-05-13T14:23:05.960Z,102071.06
2023-05-13T14:28:02.440Z,102071.19
2023-05-13T14:33:00.588Z,102059.13
2023-05-13T14:37:57.200Z,102056.00
2023-05-13T14:42:53.747Z,102057.25
2023-05-13T14:47:53.483Z,102069.38
2023-05-13T14:52:50.251Z,102063.41
2023-05-13T14:57:46.779Z,102056.84
2023-05-13T15:02:43.326Z,102055.41
2023-05-13T15:07:40.484Z,102052.16
2023-05-13T15:12:37.007Z,102044.22
2023-05-13T15:17:36.624Z,102062.69
2023-05-13T15:22:34.274Z,102040.91
2023-05-13T15:27:33.648Z,102045.34
2023-05-13T15:32:30.213Z,102033.63
2023-05-13T15:37:26.703Z,102033.63
2023-05-13T15:42:23.182Z,102031.94
2023-05-13T15:47:19.786Z,102029.25
2023-05-13T15:52:16.512Z,102026.81
2023-05-13T15:57:12.969Z,102027.81
2023-05-13T16:02:12.336Z,102028.53
2023-05-13T16:07:10.887Z,102025.97
2023-05-13T16:12:07.499Z,102020.72
2023-05-13T16:17:03.986Z,102019.28
2023-05-13T16:22:40.555Z,102019.00
2023-05-13T16:27:38.750Z,102019.00
2023-05-13T16:32:35.395Z,102007.75
2023-05-13T16:37:35.398Z,102001.78
2023-05-13T16:42:31.870Z,101997.53
2023-05-13T16:47:28.342Z,102005.91
2023-05-13T16:52:25.582Z,102009.63
2023-05-13T16:57:22.572Z,102010.06
2023-05-13T17:02:19.138Z,102007.50
2023-05-13T17:07:15.704Z,101999.94
2023-05-13T17:12:12.276Z,102003.75
2023-05-13T17:17:08.864Z,101996.81
2023-05-13T17:22:05.371Z,101990.97
2023-05-13T17:27:01.863Z,101987.56
2023-05-13T17:31:58.465Z,101992.09
2023-05-13T17:36:54.957Z,102000.38
2023-05-13T17:41:51.589Z,101993.50
2023-05-13T17:46:48.106Z,101995.78
2023-05-13T17:51:44.740Z,101991.81
2023-05-13T17:56:41.227Z,101993.81
2023-05-13T18:01:37.737Z,102003.47
2023-05-13T18:06:34.204Z,102000.59
2023-05-13T18:11:30.677Z,102004.00
2023-05-13T18:16:27.178Z,102004.28
2023-05-13T18:21:24.131Z,102003.53
2023-05-13T18:26:21.574Z,102014.28
2023-05-13T18:31:18.072Z,102014.47
2023-05-13T18:36:14.673Z,102018.44
2023-05-13T18:41:11.188Z,102017.78
2023-05-13T18:46:07.796Z,102025.84
2023-05-13T18:51:04.341Z,102024.03
2023-05-13T18:56:00.996Z,102030.53
2023-05-13T19:00:57.505Z,102024.97
2023-05-13T19:05:53.934Z,102034.22
2023-05-13T19:10:50.464Z,102039.63
2023-05-13T19:15:46.946Z,102045.19
2023-05-13T19:20:43.579Z,102044.38
2023-05-13T19:25:42.315Z,102046.47
2023-05-13T19:30:39.382Z,102048.22
2023-05-13T19:35:36.287Z,102047.69
2023-05-13T19:40:32.766Z,102057.50
2023-05-13T19:45:29.322Z,102060.19
2023-05-13T19:50:25.956Z,102059.34
2023-05-13T19:55:22.426Z,102069.00
2023-05-13T20:00:18.950Z,102062.88
2023-05-13T20:05:15.381Z,102071.56
2023-05-13T20:10:11.936Z,102064.94
2023-05-13T20:15:10.178Z,102064.56
2023-05-13T20:20:08.086Z,102068.34
2023-05-13T20:25:04.701Z,102053.91
2023-05-13T20:30:02.094Z,102059.44
2023-05-13T20:34:59.634Z,102051.09
2023-05-13T20:39:56.089Z,102053.28
2023-05-13T20:44:52.629Z,102052.03
2023-05-13T20:49:49.117Z,102049.81
2023-05-13T20:54:45.603Z,102055.53
2023-05-13T20:59:42.063Z,102050.63
2023-05-13T21:04:38.558Z,102047.75
2023-05-13T21:09:35.057Z,102042.84
2023-05-13T21:14:31.554Z,102044.03
2023-05-13T21:19:27.981Z,102048.16
2023-05-13T21:24:24.281Z,102038.41
2023-05-13T21:29:20.832Z,102045.19
2023-05-13T21:34:17.310Z,102044.78
2023-05-13T21:39:13.777Z,102042.66
2023-05-13T21:44:10.062Z,102036.22
2023-05-13T21:49:06.556Z,102047.50
2023-05-13T21:54:03.070Z,102046.00
2023-05-13T21:58:59.349Z,102050.72
2023-05-13T22:03:55.827Z,102047.75
2023-05-13T22:08:55.226Z,102048.91
2023-05-13T22:13:51.742Z,102048.63
2023-05-13T22:18:48.418Z,102046.38
2023-05-13T22:23:44.903Z,102046.28
2023-05-13T22:28:41.219Z,102043.78
2023-05-13T22:33:37.719Z,102049.06
2023-05-13T22:38:33.992Z,102048.41
2023-05-13T22:43:30.501Z,102041.75
2023-05-13T22:48:26.832Z,102038.44
2023-05-13T22:53:24.204Z,102036.28
2023-05-13T22:58:21.236Z,102035.63
2023-05-13T23:03:17.687Z,102035.06
2023-05-13T23:08:13.975Z,102035.41
2023-05-13T23:13:13.427Z,102027.00
2023-05-13T23:18:09.946Z,102033.53
2023-05-13T23:23:06.319Z,102041.13
2023-05-13T23:28:02.804Z,102038.06
2023-05-13T23:32:59.158Z,102043.00
2023-05-13T23:37:55.822Z,102029.44
2023-05-13T23:42:52.300Z,102029.97
2023-05-13T23:47:50.048Z,102032.00
2023-05-13T23:52:51.019Z,102032.28
2023-05-13T23:57:48.523Z,102022.94
